Time;durP1;ratioP1;P1;durP2;ratioP2;P2;SDS_P1;SDS_P2;PMS_P1;PMS_P2;Temp;Humidity;BMP_temperature;BMP_pressure;BME280_temperature;BME280_humidity;BME280_pressure;Samples;Min_cycle;Max_cycle;Signal;HPM_P1;HPM_P2
2021/09/20 00:01:04;;;;;;;8.43;3.73;;;;;;;;;;5075705;28;20445;-62
2021/09/20 00:03:33;;;;;;;5.10;3.90;;;;;;;;;;5075950;28;20445;-60
2021/09/20 00:06:00;;;;;;;5.10;4.33;;;;;;;;;;5075466;28;20472;-62
2021/09/20 00:08:27;;;;;;;4.30;3.80;;;;;;;;;;5078865;28;20494;-62
2021/09/20 00:10:54;;;;;;;5.40;4.90;;;;;;;;;;5075919;28;20844;-62
2021/09/20 00:13:22;;;;;;;4.67;3.80;;;;;;;;;;5075946;28;20493;-62
2021/09/20 00:15:49;;;;;;;5.37;3.57;;;;;;;;;;5075721;28;20535;-62
2021/09/20 00:18:16;;;;;;;4.40;3.87;;;;;;;;;;5075427;28;20497;-62
2021/09/20 00:20:45;;;;;;;9.27;3.87;;;;;;;;;;5075690;28;20497;-61
2021/09/20 00:23:12;;;;;;;5.53;4.10;;;;;;;;;;5075632;28;20439;-62
2021/09/20 00:25:39;;;;;;;4.43;3.60;;;;;;;;;;5075100;28;20485;-61
2021/09/20 00:28:06;;;;;;;4.00;3.40;;;;;;;;;;5075640;28;20444;-61
2021/09/20 00:30:36;;;;;;;4.17;3.47;;;;;;;;;;5075412;28;20456;-61
2021/09/20 00:33:03;;;;;;;5.13;3.90;;;;;;;;;;5075201;28;20456;-61
2021/09/20 00:35:31;;;;;;;4.10;3.70;;;;;;;;;;5075439;28;20515;-62
2021/09/20 00:37:59;;;;;;;6.70;4.37;;;;;;;;;;5075418;28;20862;-61
2021/09/20 00:40:27;;;;;;;5.07;3.80;;;;;;;;;;5075407;28;20449;-61
2021/09/20 00:42:54;;;;;;;4.40;3.30;;;;;;;;;;5075469;28;20446;-61
2021/09/20 00:45:21;;;;;;;4.40;3.57;;;;;;;;;;5075205;28;20832;-62
2021/09/20 00:47:48;;;;;;;4.40;3.63;;;;;;;;;;5074962;28;20944;-61
2021/09/20 00:50:16;;;;;;;4.30;3.67;;;;;;;;;;5074873;28;20948;-62
2021/09/20 00:52:43;;;;;;;3.70;3.40;;;;;;;;;;5075095;28;20862;-62
2021/09/20 00:55:13;;;;;;;3.70;3.30;;;;;;;;;;5074813;28;20515;-62
2021/09/20 00:57:41;;;;;;;4.43;3.83;;;;;;;;;;5075130;28;20513;-62
2021/09/20 01:00:09;;;;;;;4.50;3.43;;;;;;;;;;5075699;28;20448;-62
2021/09/20 01:02:36;;;;;;;4.40;3.37;;;;;;;;;;5075335;28;20451;-62
2021/09/20 01:05:04;;;;;;;7.53;3.30;;;;;;;;;;5074830;28;21036;-61
2021/09/20 01:07:31;;;;;;;5.33;3.57;;;;;;;;;;5075346;28;20495;-62
2021/09/20 01:09:59;;;;;;;5.27;3.20;;;;;;;;;;5075423;28;20452;-62
2021/09/20 01:12:27;;;;;;;4.90;3.40;;;;;;;;;;5075003;28;20936;-62
2021/09/20 01:14:57;;;;;;;4.07;3.60;;;;;;;;;;5074991;28;20468;-62
2021/09/20 01:17:24;;;;;;;6.20;3.60;;;;;;;;;;5074691;28;20438;-62
2021/09/20 01:19:51;;;;;;;5.70;3.23;;;;;;;;;;5074861;28;20936;-62
2021/09/20 01:22:20;;;;;;;5.27;4.10;;;;;;;;;;5074774;28;20789;-62
2021/09/20 01:24:48;;;;;;;6.70;3.70;;;;;;;;;;5074468;28;20489;-62
2021/09/20 01:27:17;;;;;;;7.07;3.90;;;;;;;;;;5074474;28;20443;-62
2021/09/20 01:29:44;;;;;;;3.73;3.40;;;;;;;;;;5074300;28;20456;-61
2021/09/20 01:32:11;;;;;;;5.20;3.93;;;;;;;;;;5074025;28;20995;-62
2021/09/20 01:34:39;;;;;;;5.90;4.03;;;;;;;;;;5074114;28;20527;-62
2021/09/20 01:37:06;;;;;;;5.23;3.70;;;;;;;;;;5074172;28;20446;-62
2021/09/20 01:39:35;;;;;;;6.40;3.00;;;;;;;;;;5073848;28;20931;-62
2021/09/20 01:42:04;;;;;;;4.23;3.23;;;;;;;;;;5074019;28;20862;-61
2021/09/20 01:44:32;;;;;;;5.47;3.63;;;;;;;;;;5073872;28;20489;-61
2021/09/20 01:46:59;;;;;;;4.40;3.40;;;;;;;;;;5073612;28;20445;-61
2021/09/20 01:49:27;;;;;;;6.30;2.97;;;;;;;;;;5073871;28;20448;-62
2021/09/20 01:51:54;;;;;;;4.30;3.40;;;;;;;;;;5073912;28;20450;-61
2021/09/20 01:54:21;;;;;;;5.90;3.53;;;;;;;;;;5073895;28;20465;-62
2021/09/20 01:56:49;;;;;;;3.20;2.90;;;;;;;;;;5074361;28;20507;-62
2021/09/20 01:59:17;;;;;;;3.97;3.20;;;;;;;;;;5073793;28;20515;-62
2021/09/20 02:01:45;;;;;;;5.23;3.60;;;;;;;;;;5073417;28;20445;-61
2021/09/20 02:04:12;;;;;;;4.17;3.77;;;;;;;;;;5073137;28;20537;-62
2021/09/20 02:06:39;;;;;;;5.10;3.00;;;;;;;;;;5073711;28;20435;-62
2021/09/20 02:09:10;;;;;;;4.40;3.40;;;;;;;;;;5073693;28;20439;-62
2021/09/20 02:11:37;;;;;;;6.07;3.80;;;;;;;;;;5073279;28;20424;-61
2021/09/20 02:14:05;;;;;;;4.70;3.20;;;;;;;;;;5073215;28;20880;-60
2021/09/20 02:16:33;;;;;;;3.50;3.03;;;;;;;;;;5073418;28;20495;-62
2021/09/20 02:19:01;;;;;;;7.20;3.30;;;;;;;;;;5073387;28;20448;-62
2021/09/20 02:21:28;;;;;;;3.90;2.90;;;;;;;;;;5073363;28;20956;-61
2021/09/20 02:23:55;;;;;;;4.83;2.87;;;;;;;;;;5073205;28;20452;-62
2021/09/20 02:26:23;;;;;;;4.67;3.30;;;;;;;;;;5073008;28;20522;-62
2021/09/20 02:28:50;;;;;;;6.37;3.23;;;;;;;;;;5073395;28;20449;-62
2021/09/20 02:31:17;;;;;;;3.80;3.00;;;;;;;;;;5073173;28;20491;-61
2021/09/20 02:33:46;;;;;;;3.83;3.40;;;;;;;;;;5073095;28;20448;-62
2021/09/20 02:36:13;;;;;;;6.53;3.47;;;;;;;;;;5073172;28;20444;-62
2021/09/20 02:38:40;;;;;;;5.47;3.17;;;;;;;;;;5073440;28;20523;-61
2021/09/20 02:41:08;;;;;;;4.30;3.37;;;;;;;;;;5074860;28;20494;-62
2021/09/20 02:43:35;;;;;;;4.70;3.07;;;;;;;;;;5073455;28;20965;-61
2021/09/20 02:46:02;;;;;;;3.23;2.90;;;;;;;;;;5073115;28;20480;-62
2021/09/20 02:48:29;;;;;;;5.87;2.60;;;;;;;;;;5073332;28;20860;-61
2021/09/20 02:50:58;;;;;;;3.30;3.00;;;;;;;;;;5072910;28;20929;-62
2021/09/20 02:53:25;;;;;;;5.30;3.20;;;;;;;;;;5073196;28;20863;-62
2021/09/20 02:55:53;;;;;;;3.70;3.40;;;;;;;;;;5072776;28;20452;-62
2021/09/20 02:58:20;;;;;;;3.20;2.50;;;;;;;;;;5072919;28;20502;-62
2021/09/20 03:00:47;;;;;;;4.00;2.83;;;;;;;;;;5073082;28;20443;-62
2021/09/20 03:03:14;;;;;;;9.70;3.37;;;;;;;;;;5073109;28;20516;-62
2021/09/20 03:05:42;;;;;;;5.73;2.97;;;;;;;;;;5072519;28;21079;-62
2021/09/20 03:08:10;;;;;;;5.23;3.63;;;;;;;;;;5072978;28;20941;-62
2021/09/20 03:10:38;;;;;;;4.40;3.30;;;;;;;;;;5072965;28;20497;-62
2021/09/20 03:13:05;;;;;;;4.47;3.27;;;;;;;;;;5073028;28;20931;-62
2021/09/20 03:15:32;;;;;;;4.30;3.37;;;;;;;;;;5072767;28;20476;-62
2021/09/20 03:18:00;;;;;;;6.83;3.13;;;;;;;;;;5072907;28;20456;-62
2021/09/20 03:20:27;;;;;;;4.33;3.10;;;;;;;;;;5072953;28;20842;-61
2021/09/20 03:22:54;;;;;;;3.57;2.70;;;;;;;;;;5073483;28;20871;-61
2021/09/20 03:25:23;;;;;;;6.33;3.73;;;;;;;;;;5076202;28;20534;-61
2021/09/20 03:27:50;;;;;;;4.37;3.20;;;;;;;;;;5076535;28;20446;-61
2021/09/20 03:30:18;;;;;;;3.90;3.43;;;;;;;;;;5076551;28;20878;-61
2021/09/20 03:32:46;;;;;;;5.30;3.73;;;;;;;;;;5076493;28;20440;-61
2021/09/20 03:35:14;;;;;;;5.23;3.20;;;;;;;;;;5076051;28;20489;-61
2021/09/20 03:37:42;;;;;;;6.17;3.37;;;;;;;;;;5076381;28;20440;-61
2021/09/20 03:40:10;;;;;;;4.93;3.33;;;;;;;;;;5076387;28;20527;-61
2021/09/20 03:42:39;;;;;;;3.20;2.90;;;;;;;;;;5076310;28;20521;-59
2021/09/20 03:45:07;;;;;;;6.83;3.63;;;;;;;;;;5076088;28;20473;-61
2021/09/20 03:47:34;;;;;;;5.70;3.87;;;;;;;;;;5076175;28;20440;-61
2021/09/20 03:50:01;;;;;;;5.33;3.53;;;;;;;;;;5076148;28;20443;-62
2021/09/20 03:52:29;;;;;;;3.53;3.23;;;;;;;;;;5076048;28;20449;-61
2021/09/20 03:54:56;;;;;;;3.50;2.70;;;;;;;;;;5076045;28;20459;-61
2021/09/20 03:57:23;;;;;;;3.90;3.40;;;;;;;;;;5076175;28;20444;-62
2021/09/20 03:59:52;;;;;;;4.33;3.23;;;;;;;;;;5075678;28;20935;-61
2021/09/20 04:02:19;;;;;;;4.80;3.17;;;;;;;;;;5075899;28;20513;-61
2021/09/20 04:04:46;;;;;;;3.70;3.10;;;;;;;;;;5075576;28;20562;-62
2021/09/20 04:08:36;;;;;;;7.07;3.00;;;;;;;;;;5112164;27;20570;-62
2021/09/20 04:11:03;;;;;;;3.93;3.23;;;;;;;;;;5111929;28;20478;-62
2021/09/20 04:13:30;;;;;;;5.23;3.23;;;;;;;;;;5111225;28;20451;-61
2021/09/20 04:15:58;;;;;;;3.80;3.40;;;;;;;;;;5111228;28;20974;-63
2021/09/20 04:18:25;;;;;;;3.07;2.70;;;;;;;;;;5111087;28;20436;-62
2021/09/20 04:20:53;;;;;;;3.83;2.90;;;;;;;;;;5110807;28;21022;-62
2021/09/20 04:23:21;;;;;;;4.07;3.67;;;;;;;;;;5111085;28;20431;-62
2021/09/20 04:25:51;;;;;;;3.90;3.50;;;;;;;;;;5111077;28;20505;-61
2021/09/20 04:28:18;;;;;;;4.23;2.87;;;;;;;;;;5111429;28;20569;-61
2021/09/20 04:30:46;;;;;;;5.70;3.77;;;;;;;;;;5111317;28;20456;-63
2021/09/20 04:33:13;;;;;;;6.97;3.00;;;;;;;;;;5112082;28;20454;-61
2021/09/20 04:35:41;;;;;;;6.80;3.70;;;;;;;;;;5111023;28;20479;-63
2021/09/20 04:38:09;;;;;;;4.37;3.73;;;;;;;;;;5111350;28;20439;-61
2021/09/20 04:40:36;;;;;;;5.43;2.97;;;;;;;;;;5111481;28;20967;-61
2021/09/20 04:43:07;;;;;;;4.77;3.70;;;;;;;;;;5111812;28;20431;-62
2021/09/20 04:45:34;;;;;;;5.50;3.00;;;;;;;;;;5112547;28;20474;-62
2021/09/20 04:48:02;;;;;;;4.00;3.10;;;;;;;;;;5111149;28;20984;-61
2021/09/20 04:50:29;;;;;;;3.93;2.97;;;;;;;;;;5111091;28;20441;-61
2021/09/20 04:52:56;;;;;;;5.13;3.37;;;;;;;;;;5111143;28;20443;-61
2021/09/20 04:55:23;;;;;;;5.13;3.27;;;;;;;;;;5111377;28;20827;-61
2021/09/20 04:57:51;;;;;;;4.50;3.30;;;;;;;;;;5111685;28;20447;-61
2021/09/20 05:00:20;;;;;;;4.90;3.10;;;;;;;;;;5111973;28;20512;-61
2021/09/20 05:02:47;;;;;;;7.93;3.80;;;;;;;;;;5111540;28;20516;-61
2021/09/20 05:05:14;;;;;;;5.67;3.50;;;;;;;;;;5129759;22;20488;-58
2021/09/20 05:07:42;;;;;;;3.80;3.37;;;;;;;;;;5049319;28;20854;-57
2021/09/20 05:10:10;;;;;;;4.50;3.53;;;;;;;;;;5049583;28;20457;-58
2021/09/20 05:12:37;;;;;;;9.20;3.70;;;;;;;;;;5050039;28;20818;-58
2021/09/20 05:15:05;;;;;;;5.00;3.30;;;;;;;;;;5050026;28;20477;-58
2021/09/20 05:17:33;;;;;;;3.50;3.20;;;;;;;;;;5050319;28;20455;-65
2021/09/20 05:20:01;;;;;;;4.60;2.80;;;;;;;;;;5035857;28;20458;-58
2021/09/20 05:22:28;;;;;;;3.83;2.87;;;;;;;;;;5036165;28;20435;-58
2021/09/20 05:24:55;;;;;;;9.97;3.60;;;;;;;;;;5035805;28;20991;-58
2021/09/20 05:27:22;;;;;;;6.67;4.20;;;;;;;;;;5036024;28;20497;-58
2021/09/20 05:29:50;;;;;;;6.00;3.37;;;;;;;;;;5035965;28;20442;-58
2021/09/20 05:32:17;;;;;;;7.30;3.53;;;;;;;;;;5035643;28;20447;-57
2021/09/20 05:34:46;;;;;;;3.93;3.53;;;;;;;;;;5035774;28;20435;-56
2021/09/20 05:37:13;;;;;;;5.90;3.27;;;;;;;;;;5035693;28;20513;-56
2021/09/20 05:39:40;;;;;;;5.20;3.53;;;;;;;;;;5035586;28;20444;-56
2021/09/20 05:42:08;;;;;;;3.60;3.13;;;;;;;;;;5035508;28;20449;-56
2021/09/20 05:44:35;;;;;;;4.67;2.93;;;;;;;;;;5035514;28;20452;-58
2021/09/20 05:47:03;;;;;;;4.67;3.30;;;;;;;;;;5035292;28;20483;-56
2021/09/20 05:49:30;;;;;;;4.13;3.40;;;;;;;;;;5035908;28;20485;-57
2021/09/20 05:51:58;;;;;;;6.90;3.40;;;;;;;;;;5035276;28;20445;-57
2021/09/20 05:54:26;;;;;;;3.27;2.97;;;;;;;;;;5035080;28;20505;-57
2021/09/20 05:56:53;;;;;;;5.13;3.40;;;;;;;;;;5035353;28;20466;-58
2021/09/20 05:59:20;;;;;;;5.10;3.33;;;;;;;;;;5035198;28;20829;-57
2021/09/20 06:01:47;;;;;;;3.90;3.10;;;;;;;;;;5034806;28;20496;-58
2021/09/20 06:04:15;;;;;;;5.00;3.00;;;;;;;;;;5035165;28;20453;-57
2021/09/20 06:06:42;;;;;;;3.27;2.90;;;;;;;;;;5034594;28;20514;-57
2021/09/20 06:09:11;;;;;;;4.00;3.30;;;;;;;;;;5035031;28;20475;-56
2021/09/20 06:11:38;;;;;;;5.63;3.30;;;;;;;;;;5034846;28;20455;-56
2021/09/20 06:14:05;;;;;;;3.77;2.60;;;;;;;;;;5034474;28;20997;-56
2021/09/20 06:16:33;;;;;;;6.03;3.07;;;;;;;;;;5034548;28;21012;-57
2021/09/20 06:19:00;;;;;;;3.90;2.47;;;;;;;;;;5034510;28;20508;-57
2021/09/20 06:21:27;;;;;;;5.90;3.50;;;;;;;;;;5034574;28;20443;-57
2021/09/20 06:23:54;;;;;;;4.50;3.13;;;;;;;;;;5034695;28;20448;-57
2021/09/20 06:26:23;;;;;;;4.23;3.07;;;;;;;;;;5034416;28;20462;-58
2021/09/20 06:28:50;;;;;;;3.67;3.37;;;;;;;;;;5034470;28;20513;-57
2021/09/20 06:31:17;;;;;;;6.10;3.20;;;;;;;;;;5033455;28;20503;-58
2021/09/20 06:33:45;;;;;;;4.03;2.60;;;;;;;;;;5034378;28;20501;-56
2021/09/20 06:36:12;;;;;;;4.53;2.87;;;;;;;;;;5034570;28;20471;-57
2021/09/20 06:38:40;;;;;;;3.80;2.50;;;;;;;;;;5034120;28;20448;-57
2021/09/20 06:41:07;;;;;;;6.00;2.63;;;;;;;;;;5034309;28;20456;-57
2021/09/20 06:43:36;;;;;;;3.03;2.17;;;;;;;;;;5033890;28;20444;-57
2021/09/20 06:46:03;;;;;;;2.60;1.80;;;;;;;;;;5033791;28;20472;-57
2021/09/20 06:48:30;;;;;;;5.80;2.53;;;;;;;;;;5033870;28;20584;-57
2021/09/20 06:50:57;;;;;;;4.10;2.77;;;;;;;;;;5034115;28;20495;-57
2021/09/20 06:53:24;;;;;;;4.03;2.27;;;;;;;;;;5033945;28;20519;-56
2021/09/20 06:55:52;;;;;;;7.40;2.53;;;;;;;;;;5033961;28;20475;-57
2021/09/20 06:58:19;;;;;;;3.80;2.30;;;;;;;;;;5033681;28;20868;-57
2021/09/20 07:00:48;;;;;;;6.63;2.50;;;;;;;;;;5033592;28;20948;-58
2021/09/20 07:03:15;;;;;;;3.20;2.40;;;;;;;;;;5033929;28;20455;-58
2021/09/20 07:05:42;;;;;;;2.73;2.40;;;;;;;;;;5033711;28;20896;-59
2021/09/20 07:08:10;;;;;;;3.53;2.80;;;;;;;;;;5033783;28;20541;-57
2021/09/20 07:10:37;;;;;;;5.03;2.70;;;;;;;;;;5033796;28;20441;-57
2021/09/20 07:13:09;;;;;;;2.83;2.47;;;;;;;;;;5033758;28;20449;-57
2021/09/20 07:15:36;;;;;;;3.60;3.03;;;;;;;;;;5033579;28;21029;-57
2021/09/20 07:18:05;;;;;;;3.90;2.80;;;;;;;;;;5034285;28;20509;-57
2021/09/20 07:20:32;;;;;;;4.60;2.77;;;;;;;;;;5033631;28;20449;-57
2021/09/20 07:23:00;;;;;;;7.10;3.00;;;;;;;;;;5033731;28;20977;-57
2021/09/20 07:25:27;;;;;;;5.90;3.43;;;;;;;;;;5033068;28;20465;-57
2021/09/20 07:27:54;;;;;;;6.03;3.10;;;;;;;;;;5033059;28;20506;-57
2021/09/20 07:30:21;;;;;;;7.03;3.60;;;;;;;;;;5033183;28;20481;-58
2021/09/20 07:32:49;;;;;;;5.97;2.90;;;;;;;;;;5033183;28;20473;-56
2021/09/20 07:35:18;;;;;;;5.20;3.07;;;;;;;;;;5033087;28;21049;-58
2021/09/20 07:37:46;;;;;;;6.50;2.70;;;;;;;;;;5033308;28;20447;-58
2021/09/20 07:40:14;;;;;;;4.00;2.47;;;;;;;;;;5033486;28;20559;-58
2021/09/20 07:42:42;;;;;;;4.80;2.80;;;;;;;;;;5033349;28;20793;-57
2021/09/20 07:45:10;;;;;;;4.80;2.63;;;;;;;;;;5033272;28;20496;-59
2021/09/20 07:47:37;;;;;;;5.77;3.13;;;;;;;;;;5033369;28;20472;-57
2021/09/20 07:50:05;;;;;;;5.40;3.00;;;;;;;;;;5033140;28;20869;-60
2021/09/20 07:52:34;;;;;;;3.67;2.77;;;;;;;;;;5033167;28;20529;-58
2021/09/20 07:55:01;;;;;;;5.13;2.90;;;;;;;;;;5032947;28;20500;-57
2021/09/20 07:57:29;;;;;;;4.50;2.83;;;;;;;;;;5032868;28;20446;-59
2021/09/20 07:59:56;;;;;;;4.03;2.90;;;;;;;;;;5033845;28;20452;-57
2021/09/20 08:02:23;;;;;;;4.77;2.90;;;;;;;;;;5032766;28;20961;-57
2021/09/20 08:04:51;;;;;;;5.20;3.37;;;;;;;;;;5032532;28;20455;-58
2021/09/20 08:07:18;;;;;;;3.63;2.80;;;;;;;;;;5032822;28;20431;-57
2021/09/20 08:09:46;;;;;;;3.77;2.73;;;;;;;;;;5032748;28;20487;-57
2021/09/20 08:12:14;;;;;;;3.40;2.80;;;;;;;;;;5032955;28;20505;-56
2021/09/20 08:14:42;;;;;;;5.90;3.50;;;;;;;;;;5032792;28;20445;-58
2021/09/20 08:17:09;;;;;;;5.17;3.07;;;;;;;;;;5033034;28;20631;-57
2021/09/20 08:19:37;;;;;;;4.30;2.57;;;;;;;;;;5032916;28;20501;-58
2021/09/20 08:22:04;;;;;;;4.47;2.97;;;;;;;;;;5032474;28;20567;-59
2021/09/20 08:24:31;;;;;;;3.10;2.80;;;;;;;;;;5033030;28;20586;-58
2021/09/20 08:27:00;;;;;;;3.40;3.10;;;;;;;;;;5032687;28;20473;-57
2021/09/20 08:29:27;;;;;;;3.87;3.00;;;;;;;;;;5032598;28;20606;-58
2021/09/20 08:31:54;;;;;;;6.90;2.80;;;;;;;;;;5032706;28;20456;-57
2021/09/20 08:34:22;;;;;;;4.00;2.80;;;;;;;;;;5032410;28;20448;-59
2021/09/20 08:36:49;;;;;;;3.20;2.90;;;;;;;;;;5032625;28;20472;-58
2021/09/20 08:39:16;;;;;;;6.40;3.30;;;;;;;;;;5032639;28;20447;-58
2021/09/20 08:41:44;;;;;;;5.13;3.03;;;;;;;;;;5032702;28;20450;-58
2021/09/20 08:44:12;;;;;;;9.10;3.03;;;;;;;;;;5034594;28;20467;-58
2021/09/20 08:46:41;;;;;;;5.43;2.87;;;;;;;;;;5033615;28;20545;-56
2021/09/20 08:49:08;;;;;;;3.80;2.90;;;;;;;;;;5032337;28;20546;-58
2021/09/20 08:51:35;;;;;;;6.73;2.90;;;;;;;;;;5032622;28;20445;-57
2021/09/20 08:54:03;;;;;;;9.40;3.53;;;;;;;;;;5033764;28;20456;-57
2021/09/20 08:56:30;;;;;;;5.40;2.97;;;;;;;;;;5035905;28;20530;-57
2021/09/20 08:58:57;;;;;;;8.30;3.30;;;;;;;;;;5036360;28;20483;-57
2021/09/20 09:01:26;;;;;;;6.43;3.90;;;;;;;;;;5036409;28;20445;-57
2021/09/20 09:03:53;;;;;;;5.40;3.27;;;;;;;;;;5035611;28;20518;-57
2021/09/20 09:06:30;;;;;;;4.00;2.77;;;;;;;;;;5035698;28;20825;-58
2021/09/20 09:08:58;;;;;;;6.10;3.20;;;;;;;;;;5035966;28;20468;-58
2021/09/20 09:11:28;;;;;;;4.77;3.20;;;;;;;;;;5036115;28;20532;-57
2021/09/20 09:13:59;;;;;;;4.83;3.07;;;;;;;;;;5035866;28;20847;-57
2021/09/20 09:16:28;;;;;;;5.90;2.83;;;;;;;;;;5035850;28;20460;-58
2021/09/20 09:19:02;;;;;;;3.93;2.70;;;;;;;;;;5035900;28;20452;-58
2021/09/20 09:21:30;;;;;;;3.30;2.80;;;;;;;;;;5035555;28;20816;-58
2021/09/20 09:24:02;;;;;;;4.47;2.53;;;;;;;;;;5035791;28;20828;-58
2021/09/20 09:26:29;;;;;;;6.97;2.90;;;;;;;;;;5035683;28;20470;-59
2021/09/20 09:29:07;;;;;;;6.87;3.93;;;;;;;;;;5035704;28;20908;-58
2021/09/20 09:31:36;;;;;;;8.03;3.13;;;;;;;;;;5035706;28;20427;-58
2021/09/20 09:34:14;;;;;;;4.67;2.77;;;;;;;;;;5035343;28;20453;-57
2021/09/20 09:36:42;;;;;;;4.17;2.43;;;;;;;;;;5035541;28;20527;-57
2021/09/20 09:39:10;;;;;;;5.93;3.33;;;;;;;;;;5035528;28;20481;-58
2021/09/20 09:41:37;;;;;;;3.30;3.00;;;;;;;;;;5036176;28;20449;-58
2021/09/20 09:44:05;;;;;;;6.10;2.80;;;;;;;;;;5035040;28;20513;-58
2021/09/20 09:46:38;;;;;;;6.10;3.60;;;;;;;;;;5035014;28;20475;-59
2021/09/20 09:49:13;;;;;;;2.40;2.20;;;;;;;;;;5035150;28;20466;-58
2021/09/20 09:51:55;;;;;;;4.77;1.83;;;;;;;;;;5035170;28;20918;-58
2021/09/20 09:54:26;;;;;;;5.53;2.20;;;;;;;;;;5032431;28;20577;-57
2021/09/20 09:57:10;;;;;;;5.33;1.97;;;;;;;;;;5035082;28;20468;-58
2021/09/20 09:59:38;;;;;;;4.03;2.23;;;;;;;;;;5035419;28;20502;-59
2021/09/20 10:02:16;;;;;;;3.23;1.93;;;;;;;;;;5034829;28;20502;-58
2021/09/20 10:04:52;;;;;;;3.03;2.40;;;;;;;;;;5035018;28;20438;-57
2021/09/20 10:07:22;;;;;;;5.70;2.17;;;;;;;;;;5035076;28;20480;-58
2021/09/20 10:09:50;;;;;;;3.10;1.97;;;;;;;;;;5035584;28;20471;-58
2021/09/20 10:12:17;;;;;;;3.00;1.93;;;;;;;;;;5035647;28;20447;-57
2021/09/20 10:14:45;;;;;;;2.17;1.97;;;;;;;;;;5035073;28;20462;-58
2021/09/20 10:17:16;;;;;;;4.57;2.57;;;;;;;;;;5035061;28;20450;-57
2021/09/20 10:19:44;;;;;;;2.43;1.87;;;;;;;;;;5035478;28;20439;-58
2021/09/20 10:22:12;;;;;;;2.20;2.00;;;;;;;;;;5034609;28;20541;-58
2021/09/20 10:24:40;;;;;;;4.07;2.37;;;;;;;;;;5034521;28;20884;-58
2021/09/20 10:27:07;;;;;;;2.20;1.63;;;;;;;;;;5034515;28;20501;-58
2021/09/20 10:29:35;;;;;;;2.37;2.17;;;;;;;;;;5034352;28;20516;-58
2021/09/20 10:32:04;;;;;;;5.03;2.50;;;;;;;;;;5034874;28;20433;-57
2021/09/20 10:34:32;;;;;;;1.80;1.70;;;;;;;;;;5034692;28;20456;-57
2021/09/20 10:37:06;;;;;;;2.30;2.10;;;;;;;;;;5034481;28;20473;-57
2021/09/20 10:39:54;;;;;;;3.63;1.80;;;;;;;;;;5034361;28;20423;-58
2021/09/20 10:42:40;;;;;;;3.83;2.30;;;;;;;;;;5028776;28;20455;-58
2021/09/20 10:45:09;;;;;;;2.33;1.77;;;;;;;;;;5035115;28;20463;-58
2021/09/20 10:47:44;;;;;;;4.07;2.10;;;;;;;;;;5035717;28;20923;-57
2021/09/20 10:50:11;;;;;;;2.60;2.03;;;;;;;;;;5036643;28;20474;-57
2021/09/20 10:52:59;;;;;;;3.00;1.90;;;;;;;;;;5049071;28;20513;-64
2021/09/20 10:55:26;;;;;;;3.90;2.20;;;;;;;;;;5049152;28;20473;-60
2021/09/20 10:58:19;;;;;;;2.17;1.77;;;;;;;;;;5036436;28;20504;-58
2021/09/20 11:00:47;;;;;;;2.17;1.97;;;;;;;;;;5034104;28;20456;-59
2021/09/20 11:03:33;;;;;;;4.17;1.90;;;;;;;;;;5033998;28;20446;-59
2021/09/20 11:06:17;;;;;;;2.07;1.53;;;;;;;;;;5033953;28;20850;-59
2021/09/20 11:08:45;;;;;;;4.07;2.47;;;;;;;;;;5033968;28;20555;-58
2021/09/20 11:11:27;;;;;;;3.40;2.10;;;;;;;;;;5033689;28;20839;-59
2021/09/20 11:14:04;;;;;;;3.60;2.17;;;;;;;;;;5033426;28;20447;-60
2021/09/20 11:16:48;;;;;;;2.30;1.67;;;;;;;;;;5033022;28;21037;-59
2021/09/20 11:19:35;;;;;;;2.30;1.80;;;;;;;;;;5033410;28;20454;-59
2021/09/20 11:22:18;;;;;;;3.30;2.20;;;;;;;;;;5040869;22;20498;-62
2021/09/20 11:24:47;;;;;;;2.63;1.80;;;;;;;;;;5014867;28;20498;-61
2021/09/20 11:27:15;;;;;;;3.80;2.20;;;;;;;;;;5013925;28;20936;-63
2021/09/20 11:29:44;;;;;;;3.33;1.97;;;;;;;;;;5014129;28;20569;-62
2021/09/20 11:32:12;;;;;;;2.60;2.00;;;;;;;;;;5014256;28;20476;-62
2021/09/20 11:34:42;;;;;;;4.13;2.23;;;;;;;;;;5013817;28;20466;-62
2021/09/20 11:37:10;;;;;;;5.03;2.10;;;;;;;;;;5013684;28;20479;-62
2021/09/20 11:39:46;;;;;;;3.80;1.90;;;;;;;;;;5015212;28;20539;-62
2021/09/20 11:42:15;;;;;;;4.10;2.60;;;;;;;;;;5014991;28;21049;-63
2021/09/20 11:44:48;;;;;;;2.90;2.07;;;;;;;;;;5014288;28;20458;-62
2021/09/20 11:47:18;;;;;;;2.63;2.13;;;;;;;;;;5014492;28;20869;-63
2021/09/20 11:49:47;;;;;;;4.93;2.70;;;;;;;;;;5013786;28;21077;-62
2021/09/20 11:52:15;;;;;;;2.90;2.03;;;;;;;;;;5014760;28;20503;-62
2021/09/20 11:54:48;;;;;;;2.13;1.93;;;;;;;;;;5013687;28;20463;-61
2021/09/20 11:57:17;;;;;;;2.80;2.13;;;;;;;;;;5013591;28;20522;-61
2021/09/20 11:59:44;;;;;;;3.20;2.20;;;;;;;;;;5014717;28;20452;-62
2021/09/20 12:02:26;;;;;;;2.90;2.40;;;;;;;;;;5013682;28;21003;-64
2021/09/20 12:04:55;;;;;;;3.53;2.10;;;;;;;;;;5013681;28;20486;-63
2021/09/20 12:07:26;;;;;;;2.50;1.60;;;;;;;;;;5013480;28;20872;-61
2021/09/20 12:09:53;;;;;;;2.93;2.73;;;;;;;;;;5013112;28;20517;-62
2021/09/20 12:12:20;;;;;;;3.90;3.20;;;;;;;;;;5013248;28;20467;-61
2021/09/20 12:14:58;;;;;;;3.00;2.47;;;;;;;;;;5013984;28;20498;-62
2021/09/20 12:17:25;;;;;;;2.63;2.40;;;;;;;;;;5013614;28;20455;-61
2021/09/20 12:19:54;;;;;;;4.00;2.50;;;;;;;;;;5013231;28;20452;-62
2021/09/20 12:22:38;;;;;;;3.03;2.10;;;;;;;;;;5012965;28;20484;-62
2021/09/20 12:25:19;;;;;;;3.37;2.77;;;;;;;;;;5013539;28;20513;-62
2021/09/20 12:27:46;;;;;;;4.93;3.03;;;;;;;;;;5013211;28;20447;-61
2021/09/20 12:30:15;;;;;;;4.60;2.07;;;;;;;;;;5016808;28;20487;-62
2021/09/20 12:32:42;;;;;;;4.20;2.47;;;;;;;;;;5017328;28;20570;-63
2021/09/20 12:35:10;;;;;;;6.33;2.40;;;;;;;;;;5017031;28;20451;-62
2021/09/20 12:37:38;;;;;;;2.93;2.30;;;;;;;;;;5017044;28;20450;-62
2021/09/20 12:40:16;;;;;;;2.80;2.20;;;;;;;;;;5016674;28;20491;-62
2021/09/20 12:42:43;;;;;;;4.10;2.50;;;;;;;;;;5016938;28;20471;-63
2021/09/20 12:45:16;;;;;;;3.20;2.10;;;;;;;;;;5017075;28;20506;-62
2021/09/20 12:47:44;;;;;;;3.30;2.30;;;;;;;;;;5017023;28;20520;-63
2021/09/20 12:50:11;;;;;;;2.90;2.13;;;;;;;;;;5016504;28;21043;-62
2021/09/20 12:52:43;;;;;;;2.83;1.90;;;;;;;;;;5017070;28;20465;-63
2021/09/20 12:55:11;;;;;;;3.57;2.70;;;;;;;;;;5017163;28;20461;-63
2021/09/20 12:57:38;;;;;;;2.37;2.17;;;;;;;;;;5016839;28;20498;-63
2021/09/20 13:00:06;;;;;;;3.50;2.50;;;;;;;;;;5016315;28;20487;-63
2021/09/20 13:02:35;;;;;;;4.00;2.33;;;;;;;;;;5016520;28;20535;-62
2021/09/20 13:05:03;;;;;;;2.30;2.10;;;;;;;;;;5016461;28;20453;-62
2021/09/20 13:07:30;;;;;;;3.10;2.00;;;;;;;;;;5016708;28;20444;-62
2021/09/20 13:09:59;;;;;;;3.80;2.20;;;;;;;;;;5016542;28;20487;-63
2021/09/20 13:12:33;;;;;;;2.37;1.80;;;;;;;;;;5018249;28;20471;-62
2021/09/20 13:15:02;;;;;;;4.70;2.70;;;;;;;;;;5016739;28;20486;-62
2021/09/20 13:17:34;;;;;;;2.73;2.37;;;;;;;;;;5016188;28;20521;-62
2021/09/20 13:20:02;;;;;;;2.70;2.50;;;;;;;;;;5015859;28;20497;-62
2021/09/20 13:22:32;;;;;;;4.20;3.00;;;;;;;;;;5015738;28;20541;-62
2021/09/20 13:25:18;;;;;;;3.20;2.00;;;;;;;;;;5016411;28;20526;-62
2021/09/20 13:27:45;;;;;;;3.17;2.20;;;;;;;;;;5016179;28;20427;-61
2021/09/20 13:30:16;;;;;;;5.17;2.30;;;;;;;;;;5016068;28;20480;-60
2021/09/20 13:32:44;;;;;;;3.03;2.73;;;;;;;;;;5016229;28;20474;-64
2021/09/20 13:35:19;;;;;;;3.53;2.30;;;;;;;;;;5016274;28;20530;-63
2021/09/20 13:37:46;;;;;;;3.13;1.97;;;;;;;;;;5015843;28;20878;-62
2021/09/20 13:40:15;;;;;;;3.57;2.37;;;;;;;;;;5015156;28;20443;-61
2021/09/20 13:42:42;;;;;;;4.67;2.30;;;;;;;;;;5015512;28;20526;-62
2021/09/20 13:45:10;;;;;;;2.90;2.20;;;;;;;;;;5015721;28;20463;-61
2021/09/20 13:47:38;;;;;;;3.63;2.60;;;;;;;;;;5015389;28;20506;-62
2021/09/20 13:50:06;;;;;;;2.50;2.17;;;;;;;;;;5015782;28;20560;-63
2021/09/20 13:52:33;;;;;;;3.20;2.60;;;;;;;;;;5016294;28;20475;-63
2021/09/20 13:55:00;;;;;;;4.93;2.80;;;;;;;;;;5016102;28;20513;-62
2021/09/20 13:57:29;;;;;;;7.57;2.50;;;;;;;;;;5016041;28;20451;-62
2021/09/20 13:59:57;;;;;;;3.90;2.63;;;;;;;;;;5016102;28;20817;-62
2021/09/20 14:02:24;;;;;;;2.67;2.13;;;;;;;;;;5016273;28;20486;-63
2021/09/20 14:04:51;;;;;;;5.90;2.47;;;;;;;;;;5016082;28;20525;-62
2021/09/20 14:07:19;;;;;;;4.80;2.40;;;;;;;;;;5016946;28;20447;-63
2021/09/20 14:09:47;;;;;;;5.83;2.43;;;;;;;;;;5015110;28;20474;-61
2021/09/20 14:12:14;;;;;;;3.90;2.10;;;;;;;;;;5015107;28;20548;-63
2021/09/20 14:14:43;;;;;;;2.93;2.70;;;;;;;;;;5015355;28;20447;-62
2021/09/20 14:17:10;;;;;;;2.90;2.60;;;;;;;;;;5015041;28;20459;-62
2021/09/20 14:19:38;;;;;;;4.93;2.90;;;;;;;;;;5015345;28;20455;-62
2021/09/20 14:22:06;;;;;;;2.93;2.63;;;;;;;;;;5014677;28;20487;-62
2021/09/20 14:24:34;;;;;;;5.77;2.70;;;;;;;;;;5014875;28;20455;-62
2021/09/20 14:27:02;;;;;;;2.87;2.17;;;;;;;;;;5015003;28;20594;-62
2021/09/20 14:29:29;;;;;;;2.40;1.67;;;;;;;;;;5014340;28;20447;-61
2021/09/20 14:31:58;;;;;;;3.10;2.63;;;;;;;;;;5014522;28;20489;-62
2021/09/20 14:34:25;;;;;;;3.73;2.30;;;;;;;;;;5014633;28;20859;-61
2021/09/20 14:36:52;;;;;;;2.40;2.20;;;;;;;;;;5014564;28;20449;-62
2021/09/20 14:39:19;;;;;;;3.57;2.37;;;;;;;;;;5014441;28;20439;-62
2021/09/20 14:41:47;;;;;;;3.90;2.33;;;;;;;;;;5014484;28;20535;-62
2021/09/20 14:44:14;;;;;;;3.53;2.30;;;;;;;;;;5014394;28;20451;-62
2021/09/20 14:46:41;;;;;;;6.67;2.83;;;;;;;;;;5014666;28;20800;-62
2021/09/20 14:49:10;;;;;;;3.10;2.57;;;;;;;;;;5014577;28;20442;-63
2021/09/20 14:51:37;;;;;;;5.17;3.00;;;;;;;;;;5013747;28;20483;-62
2021/09/20 14:54:04;;;;;;;4.03;3.07;;;;;;;;;;5017548;28;20473;-61